Time;durP1;ratioP1;P1;durP2;ratioP2;P2;SDS_P1;SDS_P2;PMS_P1;PMS_P2;Temp;Humidity;BMP_temperature;BMP_pressure;BME280_temperature;BME280_humidity;BME280_pressure;Samples;Min_cycle;Max_cycle;Signal;HPM_P1;HPM_P2
2023/08/27 00:01:52;;;;;;;5.32;4.20;;;;;;;;;;5050098;28;20031;-65
2023/08/27 00:04:18;;;;;;;5.30;4.22;;;;;;;;;;5049023;28;20024;-65
2023/08/27 00:06:44;;;;;;;7.82;4.38;;;;;;;;;;5049079;28;20055;-64
2023/08/27 00:09:10;;;;;;;6.28;4.20;;;;;;;;;;5049184;28;20157;-65
2023/08/27 00:11:36;;;;;;;4.93;3.58;;;;;;;;;;5048102;28;20040;-65
2023/08/27 00:14:02;;;;;;;4.57;3.42;;;;;;;;;;5048275;28;20126;-65
2023/08/27 00:16:29;;;;;;;5.38;3.33;;;;;;;;;;5048463;28;20036;-65
2023/08/27 00:18:55;;;;;;;5.70;3.67;;;;;;;;;;5047103;28;20287;-64
2023/08/27 00:21:21;;;;;;;4.18;3.10;;;;;;;;;;5046511;28;20434;-65
2023/08/27 00:23:47;;;;;;;5.57;3.63;;;;;;;;;;5047574;28;20032;-65
2023/08/27 00:26:13;;;;;;;5.25;3.75;;;;;;;;;;5049054;28;20024;-65
2023/08/27 00:28:39;;;;;;;7.30;4.90;;;;;;;;;;5049971;28;20042;-64
2023/08/27 00:31:05;;;;;;;5.95;4.93;;;;;;;;;;5049731;28;20159;-64
2023/08/27 00:33:31;;;;;;;7.03;4.47;;;;;;;;;;5049012;28;20039;-64
2023/08/27 00:35:57;;;;;;;6.93;4.25;;;;;;;;;;5048716;28;20977;-65
2023/08/27 00:38:23;;;;;;;5.55;4.22;;;;;;;;;;5047681;28;20034;-65
2023/08/27 00:40:50;;;;;;;7.15;3.83;;;;;;;;;;5046772;28;20036;-64
2023/08/27 00:43:16;;;;;;;5.25;3.53;;;;;;;;;;5044032;28;20040;-64
2023/08/27 00:45:42;;;;;;;5.82;3.67;;;;;;;;;;5049254;28;20032;-65
2023/08/27 00:48:08;;;;;;;6.72;3.67;;;;;;;;;;5048127;28;20036;-65
2023/08/27 00:50:34;;;;;;;6.55;3.58;;;;;;;;;;5046408;28;20651;-65
2023/08/27 00:53:00;;;;;;;4.63;3.30;;;;;;;;;;5047667;28;20032;-65
2023/08/27 00:55:29;;;;;;;5.47;2.90;;;;;;;;;;5048193;28;20035;-65
2023/08/27 00:57:55;;;;;;;4.68;3.35;;;;;;;;;;5048959;28;20921;-64
2023/08/27 01:00:21;;;;;;;7.35;3.15;;;;;;;;;;5048046;28;20041;-65
2023/08/27 01:02:48;;;;;;;4.90;3.30;;;;;;;;;;5048631;28;20024;-64
2023/08/27 01:05:14;;;;;;;4.82;3.50;;;;;;;;;;5046602;28;20042;-65
2023/08/27 01:07:42;;;;;;;6.15;4.28;;;;;;;;;;5048216;28;20043;-65
2023/08/27 01:10:31;;;;;;;5.75;3.65;;;;;;;;;;5049105;28;20028;-64
2023/08/27 01:13:03;;;;;;;6.75;4.60;;;;;;;;;;5055837;28;20131;-64
2023/08/27 01:15:29;;;;;;;5.68;3.75;;;;;;;;;;5048075;28;20024;-64
2023/08/27 01:17:56;;;;;;;5.65;3.78;;;;;;;;;;5049303;28;20111;-65
2023/08/27 01:20:22;;;;;;;5.47;3.88;;;;;;;;;;5048336;28;20674;-65
2023/08/27 01:22:48;;;;;;;5.57;3.85;;;;;;;;;;5047278;28;20032;-65
2023/08/27 01:25:17;;;;;;;4.70;3.08;;;;;;;;;;5047780;28;20032;-64
2023/08/27 01:27:50;;;;;;;5.90;3.10;;;;;;;;;;5049779;28;20892;-64
2023/08/27 01:30:16;;;;;;;;;;;;;;;;;;5049002;28;20110;-64
2023/08/27 01:32:48;;;;;;;6.05;3.65;;;;;;;;;;5046904;28;20002;-64
2023/08/27 01:35:15;;;;;;;5.22;3.80;;;;;;;;;;5048811;28;20044;-64
2023/08/27 01:37:41;;;;;;;5.78;4.07;;;;;;;;;;5050028;28;20026;-64
2023/08/27 01:40:08;;;;;;;7.45;4.90;;;;;;;;;;5047185;28;20928;-64
2023/08/27 01:42:37;;;;;;;6.13;4.57;;;;;;;;;;5048086;28;20700;-64
2023/08/27 01:45:05;;;;;;;6.15;4.07;;;;;;;;;;5046311;28;20055;-65
2023/08/27 01:47:31;;;;;;;8.00;4.55;;;;;;;;;;5051968;28;20086;-64
2023/08/27 01:49:57;;;;;;;5.90;4.35;;;;;;;;;;5050429;28;20024;-64
2023/08/27 01:52:23;;;;;;;5.53;3.85;;;;;;;;;;5051060;28;20039;-64
2023/08/27 01:54:49;;;;;;;8.70;4.70;;;;;;;;;;5050385;28;20036;-65
2023/08/27 01:57:15;;;;;;;6.28;4.20;;;;;;;;;;5053090;28;21924;-65
2023/08/27 01:59:41;;;;;;;7.82;4.88;;;;;;;;;;5049828;28;20048;-65
2023/08/27 02:02:07;;;;;;;8.63;5.10;;;;;;;;;;5049833;28;20026;-64
2023/08/27 02:04:33;;;;;;;5.97;4.80;;;;;;;;;;5051474;28;20032;-64
2023/08/27 02:06:59;;;;;;;5.70;4.55;;;;;;;;;;5053699;28;20076;-64
2023/08/27 02:09:25;;;;;;;6.50;4.38;;;;;;;;;;5050819;28;20151;-65
2023/08/27 02:11:52;;;;;;;6.07;4.55;;;;;;;;;;5052915;28;20136;-64
2023/08/27 02:14:19;;;;;;;6.07;4.88;;;;;;;;;;5049732;28;20078;-64
2023/08/27 02:16:45;;;;;;;6.22;4.53;;;;;;;;;;5051934;28;20029;-64
2023/08/27 02:19:11;;;;;;;5.95;4.00;;;;;;;;;;5051702;28;20063;-64
2023/08/27 02:21:37;;;;;;;7.53;4.78;;;;;;;;;;5051922;28;20962;-64
2023/08/27 02:24:03;;;;;;;7.20;3.38;;;;;;;;;;5053258;28;20052;-64
2023/08/27 02:26:29;;;;;;;5.97;3.95;;;;;;;;;;5052288;28;20040;-64
2023/08/27 02:28:55;;;;;;;4.72;3.33;;;;;;;;;;5051865;28;20040;-64
2023/08/27 02:31:21;;;;;;;4.50;3.22;;;;;;;;;;5051508;28;20047;-64
2023/08/27 02:33:47;;;;;;;5.80;3.58;;;;;;;;;;5049076;28;20070;-64
2023/08/27 02:36:13;;;;;;;4.97;3.60;;;;;;;;;;5052476;28;21639;-64
2023/08/27 02:38:39;;;;;;;5.03;3.83;;;;;;;;;;5051112;28;20041;-64
2023/08/27 02:41:05;;;;;;;5.00;3.60;;;;;;;;;;5051063;28;20099;-64
2023/08/27 02:43:31;;;;;;;4.80;3.45;;;;;;;;;;5049445;28;20032;-64
2023/08/27 02:45:58;;;;;;;5.57;3.38;;;;;;;;;;5049338;28;20028;-65
2023/08/27 02:48:24;;;;;;;5.40;3.53;;;;;;;;;;5048308;28;20035;-64
2023/08/27 02:50:51;;;;;;;9.15;3.30;;;;;;;;;;5049309;28;20036;-64
2023/08/27 02:53:17;;;;;;;11.30;3.28;;;;;;;;;;5047903;28;20127;-64
2023/08/27 02:55:43;;;;;;;5.20;3.40;;;;;;;;;;5048653;28;20755;-64
2023/08/27 02:58:09;;;;;;;4.88;3.55;;;;;;;;;;5050334;28;20120;-64
2023/08/27 03:00:39;;;;;;;5.47;3.38;;;;;;;;;;5050055;28;20048;-64
2023/08/27 03:03:05;;;;;;;5.15;3.50;;;;;;;;;;5049658;28;20032;-64
2023/08/27 03:05:31;;;;;;;4.88;3.22;;;;;;;;;;5050215;28;20032;-64
2023/08/27 03:07:57;;;;;;;5.68;4.13;;;;;;;;;;5052352;28;20036;-64
2023/08/27 03:10:23;;;;;;;5.68;4.13;;;;;;;;;;5050613;28;20067;-64
2023/08/27 03:12:49;;;;;;;5.60;3.90;;;;;;;;;;5048804;28;20063;-64
2023/08/27 03:15:16;;;;;;;5.95;4.00;;;;;;;;;;5051015;28;20077;-64
2023/08/27 03:17:42;;;;;;;6.25;3.58;;;;;;;;;;5050001;28;20682;-64
2023/08/27 03:20:08;;;;;;;6.53;4.85;;;;;;;;;;5050323;28;20040;-64
2023/08/27 03:22:37;;;;;;;6.47;4.78;;;;;;;;;;5048867;28;20182;-64
2023/08/27 03:25:03;;;;;;;7.18;4.53;;;;;;;;;;5050429;28;20650;-64
2023/08/27 03:27:30;;;;;;;7.25;5.05;;;;;;;;;;5051504;28;20032;-64
2023/08/27 03:29:56;;;;;;;7.25;5.50;;;;;;;;;;5050305;28;20036;-64
2023/08/27 03:32:22;;;;;;;7.55;5.57;;;;;;;;;;5051511;28;20020;-64
2023/08/27 03:34:48;;;;;;;6.65;4.93;;;;;;;;;;5051485;28;20035;-64
2023/08/27 03:37:14;;;;;;;7.07;5.18;;;;;;;;;;5050922;28;20032;-64
2023/08/27 03:39:40;;;;;;;9.45;6.05;;;;;;;;;;5049554;28;20028;-64
2023/08/27 03:42:06;;;;;;;10.73;5.70;;;;;;;;;;5046978;28;20032;-64
2023/08/27 03:44:33;;;;;;;7.45;5.85;;;;;;;;;;5049040;28;20032;-64
2023/08/27 03:46:59;;;;;;;8.77;5.25;;;;;;;;;;5051173;28;20033;-64
2023/08/27 03:49:25;;;;;;;9.07;5.32;;;;;;;;;;5049534;28;20036;-64
2023/08/27 03:51:52;;;;;;;8.05;5.43;;;;;;;;;;5048629;28;20032;-65
2023/08/27 03:54:18;;;;;;;8.63;6.22;;;;;;;;;;5050237;28;20031;-64
2023/08/27 03:56:44;;;;;;;8.55;5.53;;;;;;;;;;5050358;28;20058;-64
2023/08/27 03:59:10;;;;;;;7.40;5.63;;;;;;;;;;5049877;28;20041;-64
2023/08/27 04:01:36;;;;;;;8.40;6.10;;;;;;;;;;5045978;28;20135;-64
2023/08/27 04:04:03;;;;;;;8.52;5.40;;;;;;;;;;5050235;28;20174;-64
2023/08/27 04:06:29;;;;;;;7.15;5.32;;;;;;;;;;5049249;28;20043;-64
2023/08/27 04:08:55;;;;;;;7.45;5.15;;;;;;;;;;5049090;28;20032;-64
2023/08/27 04:11:21;;;;;;;7.43;6.00;;;;;;;;;;5048555;28;20075;-64
2023/08/27 04:13:47;;;;;;;8.98;5.30;;;;;;;;;;5048959;28;20172;-65
2023/08/27 04:16:14;;;;;;;6.63;5.63;;;;;;;;;;5048619;28;20032;-64
2023/08/27 04:18:40;;;;;;;7.25;5.55;;;;;;;;;;5048671;28;20139;-62
2023/08/27 04:21:06;;;;;;;10.20;6.53;;;;;;;;;;5047644;28;20032;-62
2023/08/27 04:23:35;;;;;;;8.27;5.47;;;;;;;;;;5049802;28;20047;-62
2023/08/27 04:26:03;;;;;;;7.15;5.07;;;;;;;;;;5049367;28;20027;-62
2023/08/27 04:28:29;;;;;;;6.05;4.90;;;;;;;;;;5048267;28;20032;-62
2023/08/27 04:30:55;;;;;;;8.65;6.32;;;;;;;;;;5047638;28;20059;-62
2023/08/27 04:33:21;;;;;;;8.98;6.00;;;;;;;;;;5047508;28;20125;-63
2023/08/27 04:35:52;;;;;;;7.03;5.75;;;;;;;;;;5047784;28;20028;-62
2023/08/27 04:38:19;;;;;;;8.88;5.70;;;;;;;;;;5049264;28;20020;-62
2023/08/27 04:40:50;;;;;;;8.05;5.93;;;;;;;;;;5049126;28;20089;-62
2023/08/27 04:43:16;;;;;;;9.02;5.55;;;;;;;;;;5049169;28;20032;-62
2023/08/27 04:45:42;;;;;;;7.18;5.25;;;;;;;;;;5048126;28;20055;-62
2023/08/27 04:48:08;;;;;;;8.45;5.95;;;;;;;;;;5047185;28;20506;-62
2023/08/27 04:50:34;;;;;;;7.05;5.18;;;;;;;;;;5043719;28;20170;-62
2023/08/27 04:53:01;;;;;;;8.13;5.10;;;;;;;;;;5049178;28;20029;-63
2023/08/27 04:55:27;;;;;;;13.15;6.13;;;;;;;;;;5048803;28;20032;-62
2023/08/27 04:57:53;;;;;;;9.73;6.25;;;;;;;;;;5048717;28;20879;-62
2023/08/27 05:00:22;;;;;;;8.82;5.40;;;;;;;;;;5046381;28;20057;-62
2023/08/27 05:02:49;;;;;;;8.30;6.20;;;;;;;;;;5048776;28;20032;-62
2023/08/27 05:05:15;;;;;;;6.82;5.43;;;;;;;;;;5047563;28;20800;-62
2023/08/27 05:07:41;;;;;;;7.20;5.50;;;;;;;;;;5049613;28;20064;-63
2023/08/27 05:10:07;;;;;;;8.07;5.72;;;;;;;;;;5048289;28;20063;-62
2023/08/27 05:12:33;;;;;;;7.95;5.45;;;;;;;;;;5047662;28;20046;-62
2023/08/27 05:14:59;;;;;;;7.32;5.03;;;;;;;;;;5046997;28;20123;-62
2023/08/27 05:17:25;;;;;;;6.72;4.75;;;;;;;;;;5049178;28;20024;-62
2023/08/27 05:19:51;;;;;;;8.73;5.22;;;;;;;;;;5049563;28;20115;-62
2023/08/27 05:22:21;;;;;;;8.35;5.18;;;;;;;;;;5051117;28;21884;-62
2023/08/27 05:24:47;;;;;;;9.32;5.30;;;;;;;;;;5052945;28;20046;-62
2023/08/27 05:27:13;;;;;;;8.48;5.30;;;;;;;;;;5053282;28;20047;-62
2023/08/27 05:29:39;;;;;;;6.65;4.88;;;;;;;;;;5052460;28;20036;-62
2023/08/27 05:32:05;;;;;;;8.63;4.85;;;;;;;;;;5049874;28;20464;-63
2023/08/27 05:34:31;;;;;;;6.28;4.50;;;;;;;;;;5053872;28;20154;-62
2023/08/27 05:36:57;;;;;;;7.80;4.60;;;;;;;;;;5053510;28;20029;-62
2023/08/27 05:39:24;;;;;;;8.13;5.28;;;;;;;;;;5052215;28;20039;-62
2023/08/27 05:41:50;;;;;;;9.38;5.07;;;;;;;;;;5051450;28;20062;-62
2023/08/27 05:44:16;;;;;;;9.75;5.38;;;;;;;;;;5051998;28;20032;-62
2023/08/27 05:46:42;;;;;;;7.72;5.32;;;;;;;;;;5052393;28;20081;-62
2023/08/27 05:49:08;;;;;;;8.30;5.20;;;;;;;;;;5052890;28;20040;-62
2023/08/27 05:51:34;;;;;;;7.55;5.07;;;;;;;;;;5052274;28;20496;-62
2023/08/27 05:54:00;;;;;;;9.23;5.40;;;;;;;;;;5052914;28;20024;-62
2023/08/27 05:56:27;;;;;;;9.02;5.53;;;;;;;;;;5051691;28;20034;-62
2023/08/27 05:58:53;;;;;;;6.72;5.03;;;;;;;;;;5050642;28;20043;-63
2023/08/27 06:01:19;;;;;;;10.00;5.85;;;;;;;;;;5049856;28;20031;-62
2023/08/27 06:03:45;;;;;;;9.73;5.32;;;;;;;;;;5052246;28;20036;-62
2023/08/27 06:06:12;;;;;;;9.23;5.55;;;;;;;;;;5051820;28;20144;-62
2023/08/27 06:08:38;;;;;;;8.88;5.70;;;;;;;;;;5051866;28;21357;-62
2023/08/27 06:11:04;;;;;;;9.40;5.80;;;;;;;;;;5051268;28;20474;-62
2023/08/27 06:13:30;;;;;;;6.65;5.13;;;;;;;;;;5050039;28;20033;-62
2023/08/27 06:15:57;;;;;;;8.15;5.68;;;;;;;;;;5050175;28;20028;-62
2023/08/27 06:18:26;;;;;;;6.55;5.07;;;;;;;;;;5050541;28;20090;-62
2023/08/27 06:20:52;;;;;;;8.30;5.10;;;;;;;;;;5049544;28;20495;-62
2023/08/27 06:23:18;;;;;;;12.15;6.03;;;;;;;;;;5052989;28;20124;-62
2023/08/27 06:25:44;;;;;;;7.45;5.47;;;;;;;;;;5050975;28;21967;-62
2023/08/27 06:28:10;;;;;;;8.85;5.82;;;;;;;;;;5051865;28;20039;-62
2023/08/27 06:30:41;;;;;;;9.48;5.53;;;;;;;;;;5049637;28;20036;-62
2023/08/27 06:33:09;;;;;;;9.27;5.93;;;;;;;;;;5051899;28;20091;-62
2023/08/27 06:35:35;;;;;;;7.40;5.53;;;;;;;;;;5051111;28;20158;-62
2023/08/27 06:38:01;;;;;;;9.50;5.78;;;;;;;;;;5052114;28;20032;-62
2023/08/27 06:40:29;;;;;;;8.60;5.50;;;;;;;;;;5050846;28;20040;-62
2023/08/27 06:42:56;;;;;;;8.65;6.00;;;;;;;;;;5050298;28;20043;-62
2023/08/27 06:45:22;;;;;;;10.20;5.97;;;;;;;;;;5049908;28;20086;-62
2023/08/27 06:47:48;;;;;;;10.02;5.53;;;;;;;;;;5050754;28;22022;-62
2023/08/27 06:50:14;;;;;;;9.85;5.22;;;;;;;;;;5050542;28;20039;-62
2023/08/27 06:52:40;;;;;;;8.57;5.32;;;;;;;;;;5050203;28;20117;-62
2023/08/27 06:55:06;;;;;;;9.10;5.25;;;;;;;;;;5049588;28;20032;-62
2023/08/27 06:57:33;;;;;;;12.35;5.60;;;;;;;;;;5044650;28;20029;-62
2023/08/27 07:00:00;;;;;;;6.82;4.70;;;;;;;;;;5048970;28;20048;-62
2023/08/27 07:02:27;;;;;;;9.75;5.63;;;;;;;;;;5045064;28;20127;-62
2023/08/27 07:04:54;;;;;;;8.85;6.07;;;;;;;;;;5045561;28;20036;-62
2023/08/27 07:07:20;;;;;;;8.90;5.40;;;;;;;;;;5048564;28;20079;-62
2023/08/27 07:09:46;;;;;;;6.88;5.00;;;;;;;;;;5050438;28;20150;-62
2023/08/27 07:12:13;;;;;;;8.85;4.65;;;;;;;;;;5050119;28;20033;-62
2023/08/27 07:14:39;;;;;;;7.05;4.30;;;;;;;;;;5047953;28;20042;-62
2023/08/27 07:17:05;;;;;;;8.05;4.22;;;;;;;;;;5049876;28;20771;-62
2023/08/27 07:19:31;;;;;;;7.70;3.88;;;;;;;;;;5048176;28;20029;-62
2023/08/27 07:21:57;;;;;;;6.88;3.90;;;;;;;;;;5049370;28;20079;-62
2023/08/27 07:24:23;;;;;;;8.20;4.50;;;;;;;;;;5048774;28;20057;-62
2023/08/27 07:26:49;;;;;;;9.55;4.07;;;;;;;;;;5047372;28;20063;-62
2023/08/27 07:29:15;;;;;;;7.28;3.95;;;;;;;;;;5048851;28;20027;-62
2023/08/27 07:31:42;;;;;;;8.77;4.28;;;;;;;;;;5050429;28;20521;-62
2023/08/27 07:34:08;;;;;;;6.72;4.03;;;;;;;;;;5048266;28;20025;-62
2023/08/27 07:36:34;;;;;;;7.60;4.00;;;;;;;;;;5043682;28;20150;-62
2023/08/27 07:39:00;;;;;;;6.55;3.97;;;;;;;;;;5048574;28;20078;-62
2023/08/27 07:41:26;;;;;;;8.38;4.28;;;;;;;;;;5049954;28;20043;-62
2023/08/27 07:43:52;;;;;;;6.43;4.13;;;;;;;;;;5045190;28;20119;-62
2023/08/27 07:46:18;;;;;;;5.10;3.08;;;;;;;;;;5050921;28;20078;-62
2023/08/27 07:48:44;;;;;;;6.22;3.92;;;;;;;;;;5050628;28;20036;-63
2023/08/27 07:51:10;;;;;;;7.28;4.15;;;;;;;;;;5049539;28;20059;-63
2023/08/27 07:53:36;;;;;;;6.50;3.10;;;;;;;;;;5051805;28;20077;-63
2023/08/27 07:56:02;;;;;;;8.30;3.60;;;;;;;;;;5049503;28;20036;-63
2023/08/27 07:58:30;;;;;;;6.40;3.30;;;;;;;;;;5051004;28;20567;-63
2023/08/27 08:00:58;;;;;;;7.57;3.85;;;;;;;;;;5045119;28;20044;-63
2023/08/27 08:03:24;;;;;;;7.20;3.60;;;;;;;;;;5046772;28;20770;-63
2023/08/27 08:05:50;;;;;;;10.55;4.05;;;;;;;;;;5044901;28;20051;-63
2023/08/27 08:08:16;;;;;;;9.60;3.85;;;;;;;;;;5046214;28;20036;-63
2023/08/27 08:10:42;;;;;;;7.38;3.67;;;;;;;;;;5047461;28;20048;-63
2023/08/27 08:13:08;;;;;;;8.90;4.22;;;;;;;;;;5050835;28;20062;-63
2023/08/27 08:15:34;;;;;;;9.15;3.95;;;;;;;;;;5050921;28;20028;-64
2023/08/27 08:18:02;;;;;;;6.32;3.47;;;;;;;;;;5047281;28;20030;-64
2023/08/27 08:20:28;;;;;;;5.88;3.05;;;;;;;;;;5050204;28;21020;-64
2023/08/27 08:22:54;;;;;;;5.85;2.97;;;;;;;;;;5048931;28;20036;-64
2023/08/27 08:25:21;;;;;;;5.85;2.55;;;;;;;;;;5051358;28;20039;-63
2023/08/27 08:27:47;;;;;;;5.97;2.85;;;;;;;;;;5048655;28;20047;-64
2023/08/27 08:30:13;;;;;;;7.05;2.40;;;;;;;;;;5050497;28;20059;-64
2023/08/27 08:32:39;;;;;;;6.88;2.80;;;;;;;;;;5049883;28;20062;-64
2023/08/27 08:35:06;;;;;;;5.15;2.33;;;;;;;;;;5050914;28;20036;-64
2023/08/27 08:37:32;;;;;;;6.63;2.78;;;;;;;;;;5050568;28;20028;-64
2023/08/27 08:39:58;;;;;;;4.43;2.35;;;;;;;;;;5049888;28;20036;-64
2023/08/27 08:42:32;;;;;;;5.60;2.72;;;;;;;;;;5050035;28;20055;-64
2023/08/27 08:45:17;;;;;;;5.38;2.47;;;;;;;;;;5047680;28;20032;-64
2023/08/27 08:47:44;;;;;;;5.00;2.38;;;;;;;;;;5047190;28;20082;-63
2023/08/27 08:50:13;;;;;;;6.55;2.40;;;;;;;;;;5048297;28;20520;-64
2023/08/27 08:52:40;;;;;;;4.03;2.10;;;;;;;;;;5047278;28;20051;-64
2023/08/27 08:55:10;;;;;;;4.97;2.30;;;;;;;;;;5048325;28;20020;-64
2023/08/27 08:57:40;;;;;;;4.47;2.25;;;;;;;;;;5053041;28;20374;-64
2023/08/27 09:00:08;;;;;;;5.40;2.20;;;;;;;;;;5050020;28;20052;-64
2023/08/27 09:02:37;;;;;;;4.43;2.00;;;;;;;;;;5047616;28;20032;-64
2023/08/27 09:05:03;;;;;;;4.72;2.03;;;;;;;;;;5051539;28;20044;-64
2023/08/27 09:07:29;;;;;;;5.88;2.05;;;;;;;;;;5052908;28;20039;-64
2023/08/27 09:09:57;;;;;;;6.22;2.40;;;;;;;;;;5048640;28;20107;-64
2023/08/27 09:12:23;;;;;;;5.25;2.30;;;;;;;;;;5050748;28;20086;-64
2023/08/27 09:14:49;;;;;;;5.25;2.00;;;;;;;;;;5051592;28;20028;-64
2023/08/27 09:17:18;;;;;;;4.10;2.15;;;;;;;;;;5050382;28;20394;-64
2023/08/27 09:19:46;;;;;;;4.95;2.30;;;;;;;;;;5051281;28;20479;-64
2023/08/27 09:22:12;;;;;;;3.97;1.70;;;;;;;;;;5050002;28;20032;-64
2023/08/27 09:24:38;;;;;;;3.50;1.80;;;;;;;;;;5051280;28;20043;-64
2023/08/27 09:27:04;;;;;;;4.07;1.70;;;;;;;;;;5049438;28;20033;-64
2023/08/27 09:29:31;;;;;;;4.30;1.70;;;;;;;;;;5051020;28;20046;-65
2023/08/27 09:31:57;;;;;;;3.65;1.50;;;;;;;;;;5052788;28;20428;-65
2023/08/27 09:34:23;;;;;;;3.42;1.67;;;;;;;;;;5053475;28;20029;-65
2023/08/27 09:36:49;;;;;;;3.33;1.33;;;;;;;;;;5051941;28;20279;-64
2023/08/27 09:39:16;;;;;;;3.33;1.40;;;;;;;;;;5048522;28;20039;-64
2023/08/27 09:41:43;;;;;;;5.40;2.20;;;;;;;;;;5052983;28;20561;-64
2023/08/27 09:44:09;;;;;;;5.05;1.67;;;;;;;;;;5052070;28;20834;-63
2023/08/27 09:46:36;;;;;;;3.47;1.58;;;;;;;;;;5053675;28;20039;-65
2023/08/27 09:49:04;;;;;;;3.88;1.33;;;;;;;;;;5050958;28;21240;-64
2023/08/27 09:51:31;;;;;;;4.55;1.98;;;;;;;;;;5051907;28;20040;-64
2023/08/27 09:53:58;;;;;;;4.20;1.67;;;;;;;;;;5051430;28;20688;-64
2023/08/27 09:56:27;;;;;;;5.28;1.50;;;;;;;;;;5050362;28;20486;-64
2023/08/27 09:58:54;;;;;;;5.07;2.13;;;;;;;;;;5049353;28;20032;-64
2023/08/27 10:01:23;;;;;;;2.47;1.10;;;;;;;;;;5048173;28;20138;-64
2023/08/27 10:03:49;;;;;;;3.42;1.40;;;;;;;;;;5048388;28;20152;-64
2023/08/27 10:06:15;;;;;;;3.92;1.85;;;;;;;;;;5047750;28;20104;-64
2023/08/27 10:08:51;;;;;;;4.30;1.70;;;;;;;;;;5050786;28;20040;-64
2023/08/27 10:11:18;;;;;;;3.63;1.30;;;;;;;;;;5051257;28;20614;-64
2023/08/27 10:13:44;;;;;;;3.75;1.67;;;;;;;;;;5050103;28;20025;-64
2023/08/27 10:16:15;;;;;;;2.42;1.38;;;;;;;;;;5051034;28;20029;-65
2023/08/27 10:18:41;;;;;;;3.60;1.33;;;;;;;;;;5051808;28;20414;-64
2023/08/27 10:21:08;;;;;;;3.67;1.42;;;;;;;;;;5051819;28;20055;-65
2023/08/27 10:23:36;;;;;;;4.20;1.40;;;;;;;;;;5050483;28;20016;-65
2023/08/27 10:26:03;;;;;;;3.55;1.35;;;;;;;;;;5049813;28;20040;-64
2023/08/27 10:28:30;;;;;;;3.63;1.48;;;;;;;;;;5052530;28;20033;-66
2023/08/27 10:30:59;;;;;;;5.25;1.67;;;;;;;;;;5053374;28;20490;-66
2023/08/27 10:33:25;;;;;;;3.47;1.60;;;;;;;;;;5053884;28;20063;-66
2023/08/27 10:35:53;;;;;;;3.35;1.73;;;;;;;;;;5050713;28;20775;-66
2023/08/27 10:38:21;;;;;;;3.50;1.63;;;;;;;;;;5051457;28;20020;-67
2023/08/27 10:40:47;;;;;;;5.25;2.10;;;;;;;;;;5049855;28;20777;-67
2023/08/27 10:43:17;;;;;;;3.92;1.50;;;;;;;;;;5051261;28;21199;-67
2023/08/27 10:45:43;;;;;;;4.22;1.55;;;;;;;;;;5053239;28;20032;-67
2023/08/27 10:48:23;;;;;;;3.47;1.50;;;;;;;;;;5052276;28;20035;-67
2023/08/27 10:50:58;;;;;;;4.32;1.60;;;;;;;;;;5053072;28;20659;-67
2023/08/27 10:53:24;;;;;;;5.20;1.85;;;;;;;;;;5053432;28;20748;-67
2023/08/27 10:55:51;;;;;;;3.78;1.60;;;;;;;;;;5053632;28;20032;-67
2023/08/27 10:58:17;;;;;;;3.65;1.40;;;;;;;;;;5052422;28;20035;-67
2023/08/27 11:01:03;;;;;;;3.70;1.52;;;;;;;;;;5053390;28;20044;-67
2023/08/27 11:03:48;;;;;;;4.13;1.60;;;;;;;;;;5051719;28;20027;-66
2023/08/27 11:06:15;;;;;;;3.88;2.03;;;;;;;;;;5067995;28;20040;-66
2023/08/27 11:08:41;;;;;;;5.97;1.70;;;;;;;;;;5053190;28;20032;-67
2023/08/27 11:11:13;;;;;;;4.68;1.98;;;;;;;;;;5055527;28;20037;-68
2023/08/27 11:13:45;;;;;;;4.50;1.90;;;;;;;;;;5057067;28;20032;-67
2023/08/27 11:16:13;;;;;;;3.70;1.75;;;;;;;;;;5058110;28;20028;-67
2023/08/27 11:18:48;;;;;;;5.03;2.20;;;;;;;;;;5057832;28;20454;-67
2023/08/27 11:21:25;;;;;;;4.82;2.15;;;;;;;;;;5058826;28;20131;-67
2023/08/27 11:24:12;;;;;;;4.28;2.00;;;;;;;;;;5058556;28;20036;-67
2023/08/27 11:26:39;;;;;;;2.95;1.45;;;;;;;;;;5047812;28;20041;-67
2023/08/27 11:29:07;;;;;;;3.13;1.48;;;;;;;;;;5058527;28;20031;-67
2023/08/27 11:31:33;;;;;;;4.43;1.42;;;;;;;;;;5060903;28;20036;-66
2023/08/27 11:34:00;;;;;;;3.95;1.40;;;;;;;;;;5062148;28;20043;-67
2023/08/27 11:36:26;;;;;;;3.13;1.48;;;;;;;;;;5061722;28;20032;-67
2023/08/27 11:38:58;;;;;;;2.35;1.17;;;;;;;;;;5061183;28;20025;-67
2023/08/27 11:41:24;;;;;;;3.58;1.40;;;;;;;;;;5061066;28;20154;-66
2023/08/27 11:43:53;;;;;;;2.95;1.00;;;;;;;;;;5062107;28;20063;-66
2023/08/27 11:46:25;;;;;;;1.98;0.90;;;;;;;;;;5061451;28;20032;-67
2023/08/27 11:48:51;;;;;;;4.35;0.95;;;;;;;;;;5060621;28;20636;-67
2023/08/27 11:51:17;;;;;;;2.45;1.20;;;;;;;;;;5061783;28;21845;-67
2023/08/27 11:53:44;;;;;;;2.15;0.82;;;;;;;;;;5062557;28;20542;-67
2023/08/27 11:56:12;;;;;;;4.63;1.10;;;;;;;;;;5061896;28;20059;-67
2023/08/27 11:58:41;;;;;;;7.68;0.98;;;;;;;;;;5060448;28;20027;-67
2023/08/27 12:01:10;;;;;;;2.88;0.73;;;;;;;;;;5061970;28;20106;-67
2023/08/27 12:03:38;;;;;;;2.88;1.02;;;;;;;;;;5061656;28;20025;-66
2023/08/27 12:06:04;;;;;;;2.67;1.10;;;;;;;;;;5056925;28;20186;-66
2023/08/27 12:08:36;;;;;;;3.22;1.42;;;;;;;;;;5059239;28;20028;-67
2023/08/27 12:11:04;;;;;;;3.83;1.80;;;;;;;;;;5059162;28;20082;-67
2023/08/27 12:13:30;;;;;;;4.07;1.40;;;;;;;;;;5060126;28;20568;-67
2023/08/27 12:15:56;;;;;;;6.10;2.15;;;;;;;;;;5059342;28;20025;-67
2023/08/27 12:18:22;;;;;;;6.25;2.10;;;;;;;;;;5056934;28;20064;-67
2023/08/27 12:20:52;;;;;;;2.70;1.17;;;;;;;;;;5058182;28;20035;-67
2023/08/27 12:23:18;;;;;;;5.18;1.90;;;;;;;;;;5058643;28;20055;-67
2023/08/27 12:25:53;;;;;;;6.45;1.65;;;;;;;;;;5053044;28;20040;-70
2023/08/27 12:28:21;;;;;;;4.60;1.30;;;;;;;;;;5052219;28;20092;-70
2023/08/27 12:30:52;;;;;;;2.50;0.90;;;;;;;;;;5051630;28;20641;-69
2023/08/27 12:33:18;;;;;;;6.60;1.45;;;;;;;;;;5054010;28;20182;-70
2023/08/27 12:35:44;;;;;;;2.03;0.50;;;;;;;;;;5052391;28;20140;-70
2023/08/27 12:38:10;;;;;;;3.35;0.90;;;;;;;;;;5054356;28;20039;-70
2023/08/27 12:40:37;;;;;;;3.55;0.88;;;;;;;;;;5053898;28;20036;-70
2023/08/27 12:43:03;;;;;;;2.28;0.50;;;;;;;;;;5053639;28;20631;-70
2023/08/27 12:45:29;;;;;;;3.03;0.85;;;;;;;;;;5052475;28;20031;-70
2023/08/27 12:47:55;;;;;;;1.20;0.60;;;;;;;;;;5054805;28;20097;-70
2023/08/27 12:50:21;;;;;;;2.78;0.80;;;;;;;;;;5052795;28;20082;-69
2023/08/27 12:52:48;;;;;;;3.70;0.70;;;;;;;;;;5053747;28;20044;-70
2023/08/27 12:55:14;;;;;;;2.08;0.70;;;;;;;;;;5053774;28;21764;-70
2023/08/27 12:57:41;;;;;;;1.15;0.45;;;;;;;;;;5052290;28;20027;-69
2023/08/27 13:00:08;;;;;;;4.75;0.93;;;;;;;;;;5054154;28;20922;-69
2023/08/27 13:02:34;;;;;;;1.20;0.47;;;;;;;;;;5054287;28;20052;-70
2023/08/27 13:05:03;;;;;;;1.75;0.82;;;;;;;;;;5053660;28;20090;-69
2023/08/27 13:07:31;;;;;;;1.60;0.60;;;;;;;;;;5053756;28;20027;-69
2023/08/27 13:09:57;;;;;;;2.50;0.50;;;;;;;;;;5054243;28;20050;-69
2023/08/27 13:12:23;;;;;;;1.77;0.80;;;;;;;;;;5052384;28;20040;-69
2023/08/27 13:14:49;;;;;;;1.85;0.70;;;;;;;;;;5052035;28;20044;-69
2023/08/27 13:17:15;;;;;;;1.63;0.70;;;;;;;;;;5051458;28;20028;-70
2023/08/27 13:19:41;;;;;;;3.22;1.08;;;;;;;;;;5052400;28;20040;-69
2023/08/27 13:22:07;;;;;;;4.07;1.00;;;;;;;;;;5052139;28;20059;-69
2023/08/27 13:24:33;;;;;;;2.17;0.70;;;;;;;;;;5051952;28;20063;-69
2023/08/27 13:26:59;;;;;;;2.30;0.85;;;;;;;;;;5052270;28;20039;-69
2023/08/27 13:29:26;;;;;;;0.82;0.50;;;;;;;;;;5053363;28;20044;-68
2023/08/27 13:31:58;;;;;;;2.42;0.80;;;;;;;;;;5052153;28;20514;-68
2023/08/27 13:34:25;;;;;;;2.65;0.73;;;;;;;;;;5052778;28;20028;-68
2023/08/27 13:36:51;;;;;;;3.53;0.80;;;;;;;;;;5051725;28;20116;-68
2023/08/27 13:39:17;;;;;;;3.22;0.75;;;;;;;;;;5053302;28;20059;-69
2023/08/27 13:41:43;;;;;;;3.50;0.70;;;;;;;;;;5053415;28;20024;-68
2023/08/27 13:44:09;;;;;;;0.75;0.60;;;;;;;;;;5056665;28;20039;-69
2023/08/27 13:46:35;;;;;;;2.67;0.68;;;;;;;;;;5056119;28;20144;-68
2023/08/27 13:49:01;;;;;;;2.05;0.85;;;;;;;;;;5057637;28;20032;-69
2023/08/27 13:51:28;;;;;;;2.58;0.63;;;;;;;;;;5057028;28;20895;-69
2023/08/27 13:53:54;;;;;;;2.58;0.80;;;;;;;;;;5056617;28;20039;-68
2023/08/27 13:56:20;;;;;;;1.17;0.70;;;;;;;;;;5057700;28;20040;-69
2023/08/27 13:58:46;;;;;;;2.15;0.60;;;;;;;;;;5056671;28;20170;-68
2023/08/27 14:01:12;;;;;;;2.28;0.70;;;;;;;;;;5055647;28;20530;-69
2023/08/27 14:03:38;;;;;;;2.20;0.60;;;;;;;;;;5057238;28;20035;-69
2023/08/27 14:06:04;;;;;;;3.22;0.63;;;;;;;;;;5057022;28;20044;-68
2023/08/27 14:08:30;;;;;;;4.05;0.70;;;;;;;;;;5056786;28;20399;-69
2023/08/27 14:10:57;;;;;;;3.28;1.20;;;;;;;;;;5056735;28;20042;-68
2023/08/27 14:13:23;;;;;;;1.80;0.98;;;;;;;;;;5057496;28;20042;-69
2023/08/27 14:15:49;;;;;;;2.63;1.00;;;;;;;;;;5056014;28;20158;-68
2023/08/27 14:18:15;;;;;;;2.17;1.00;;;;;;;;;;5057272;28;20028;-68
2023/08/27 14:20:41;;;;;;;3.42;0.90;;;;;;;;;;5055608;28;21399;-68
2023/08/27 14:23:07;;;;;;;2.35;0.70;;;;;;;;;;5056863;28;20398;-68
2023/08/27 14:25:34;;;;;;;3.13;1.17;;;;;;;;;;5055950;28;20028;-68
2023/08/27 14:28:00;;;;;;;1.98;0.80;;;;;;;;;;5056441;28;20194;-69
2023/08/27 14:30:26;;;;;;;1.95;0.80;;;;;;;;;;5055525;28;20165;-69
2023/08/27 14:32:52;;;;;;;2.95;1.23;;;;;;;;;;5056135;28;20202;-68
2023/08/27 14:35:18;;;;;;;2.65;1.13;;;;;;;;;;5055974;28;20032;-68
2023/08/27 14:37:45;;;;;;;3.55;1.10;;;;;;;;;;5056002;28;20043;-69
2023/08/27 14:40:12;;;;;;;2.28;0.95;;;;;;;;;;5056234;28;20024;-68
2023/08/27 14:42:38;;;;;;;2.42;0.90;;;;;;;;;;5054981;28;20036;-68